Time;durP1;ratioP1;P1;durP2;ratioP2;P2;SDS_P1;SDS_P2;PMS_P1;PMS_P2;Temp;Humidity;BMP_temperature;BMP_pressure;BME280_temperature;BME280_humidity;BME280_pressure;Samples;Min_cycle;Max_cycle;Signal;HPM_P1;HPM_P2
2021/12/15 00:01:34;;;;;;;6.10;4.15;;;20.50;61.80;;;;;;5031134;28;20080;-59
2021/12/15 00:04:00;;;;;;;5.18;3.70;;;20.50;62.40;;;;;;5032044;28;20085;-59
2021/12/15 00:06:25;;;;;;;5.80;3.88;;;20.50;61.70;;;;;;5032246;28;20041;-59
2021/12/15 00:08:53;;;;;;;5.97;4.00;;;20.50;61.70;;;;;;5031096;28;20041;-59
2021/12/15 00:11:19;;;;;;;5.93;4.00;;;20.40;61.60;;;;;;5032409;28;20041;-59
2021/12/15 00:13:45;;;;;;;5.38;4.13;;;20.40;61.60;;;;;;5031897;28;20078;-59
2021/12/15 00:16:11;;;;;;;5.88;4.25;;;20.50;61.70;;;;;;5032199;28;20118;-59
2021/12/15 00:18:41;;;;;;;5.65;3.90;;;20.40;61.60;;;;;;5035924;28;20549;-59
2021/12/15 00:21:07;;;;;;;5.43;3.65;;;20.40;61.60;;;;;;5034285;28;20053;-59
2021/12/15 00:23:32;;;;;;;7.13;4.47;;;20.40;61.60;;;;;;5033825;28;20072;-59
2021/12/15 00:25:58;;;;;;;5.97;4.32;;;20.40;61.60;;;;;;5035225;28;20045;-59
2021/12/15 00:28:23;;;;;;;6.07;3.90;;;20.40;61.60;;;;;;5035574;28;20393;-59
2021/12/15 00:30:49;;;;;;;5.72;3.95;;;20.40;61.60;;;;;;5034642;28;20464;-59
2021/12/15 00:33:14;;;;;;;5.32;4.13;;;20.40;61.60;;;;;;5035633;28;20041;-59
2021/12/15 00:35:40;;;;;;;7.10;4.45;;;20.30;61.50;;;;;;5035491;28;20045;-59
2021/12/15 00:38:06;;;;;;;7.35;4.20;;;20.30;61.50;;;;;;5034542;28;20468;-59
2021/12/15 00:40:31;;;;;;;5.93;4.10;;;20.30;61.50;;;;;;5035483;28;20038;-59
2021/12/15 00:42:58;;;;;;;6.50;4.45;;;20.30;61.50;;;;;;5017396;28;20091;-59
2021/12/15 00:45:23;;;;;;;7.88;4.35;;;20.30;61.50;;;;;;5033297;28;20087;-59
2021/12/15 00:47:49;;;;;;;6.70;4.40;;;20.30;61.40;;;;;;5034890;28;20045;-59
2021/12/15 00:50:16;;;;;;;5.63;4.40;;;20.30;61.40;;;;;;5034933;28;20041;-59
2021/12/15 00:52:42;;;;;;;6.43;4.47;;;20.30;61.40;;;;;;5033996;28;20075;-59
2021/12/15 00:55:09;;;;;;;5.97;4.32;;;20.30;61.40;;;;;;5035217;28;20129;-59
2021/12/15 00:57:35;;;;;;;6.78;3.88;;;20.30;61.50;;;;;;5034770;28;20089;-59
2021/12/15 01:00:00;;;;;;;5.60;4.00;;;20.30;61.50;;;;;;5034099;28;20084;-59
2021/12/15 01:02:26;;;;;;;6.63;4.38;;;20.30;61.40;;;;;;5035016;28;20198;-59
2021/12/15 01:04:52;;;;;;;5.25;3.95;;;20.30;61.50;;;;;;5032424;28;20053;-59
2021/12/15 01:07:18;;;;;;;6.88;3.80;;;20.20;61.30;;;;;;5034885;28;20080;-59
2021/12/15 01:09:51;;;;;;;5.75;4.03;;;20.20;61.40;;;;;;5034559;28;20056;-59
2021/12/15 01:20:28;;;;;;;7.07;3.88;;;20.20;61.40;;;;;;5032350;28;20494;-59
2021/12/15 01:22:55;;;;;;;5.65;3.72;;;20.20;61.30;;;;;;5034247;28;20056;-59
2021/12/15 01:25:34;;;;;;;5.15;3.88;;;20.20;61.30;;;;;;5033207;28;20076;-59
2021/12/15 01:28:00;;;;;;;5.70;3.80;;;20.20;61.30;;;;;;5033027;28;20554;-59
2021/12/15 01:30:27;;;;;;;5.55;3.80;;;20.20;61.30;;;;;;5034573;28;20037;-59
2021/12/15 01:32:53;;;;;;;4.90;3.57;;;20.20;61.30;;;;;;5033331;28;20041;-59
2021/12/15 01:35:19;;;;;;;6.03;4.03;;;20.20;61.30;;;;;;5034461;28;20383;-59
2021/12/15 01:37:46;;;;;;;5.90;3.58;;;20.20;61.30;;;;;;5033838;28;20045;-59
2021/12/15 01:40:19;;;;;;;5.18;3.50;;;20.20;61.30;;;;;;5033182;28;20056;-59
2021/12/15 01:42:45;;;;;;;6.72;4.35;;;20.20;61.30;;;;;;5034028;28;20046;-59
2021/12/15 01:48:03;;;;;;;6.57;4.18;;;20.20;61.30;;;;;;5033002;28;20053;-59
2021/12/15 01:50:28;;;;;;;5.05;3.60;;;20.10;61.20;;;;;;5034008;28;20045;-59
2021/12/15 01:52:54;;;;;;;7.35;3.85;;;20.10;61.20;;;;;;5033225;28;20710;-59
2021/12/15 01:55:20;;;;;;;6.63;3.97;;;20.10;61.20;;;;;;5033211;28;20057;-59
2021/12/15 01:57:46;;;;;;;6.00;3.65;;;20.10;61.20;;;;;;5033018;28;20053;-59
2021/12/15 02:00:27;;;;;;;5.88;3.65;;;20.10;61.20;;;;;;5033776;28;20041;-59
2021/12/15 02:02:53;;;;;;;5.88;3.97;;;20.10;61.20;;;;;;5032607;28;20135;-59
2021/12/15 02:05:18;;;;;;;5.78;3.65;;;20.10;61.20;;;;;;5032335;28;20069;-59
2021/12/15 02:07:44;;;;;;;4.85;3.90;;;20.10;61.20;;;;;;5033356;28;20103;-59
2021/12/15 02:10:10;;;;;;;5.38;3.53;;;20.10;61.10;;;;;;5033034;28;20152;-59
2021/12/15 02:12:38;;;;;;;5.68;4.07;;;20.10;61.10;;;;;;5033817;28;20123;-59
2021/12/15 02:15:10;;;;;;;4.85;3.55;;;20.10;61.70;;;;;;5031270;28;20049;-59
2021/12/15 02:17:35;;;;;;;5.43;3.50;;;20.10;61.10;;;;;;5033651;28;20068;-59
2021/12/15 02:20:01;;;;;;;5.53;3.72;;;20.10;61.20;;;;;;5033019;28;20045;-59
2021/12/15 02:22:29;;;;;;;5.20;3.60;;;20.00;61.10;;;;;;5032813;28;20041;-59
2021/12/15 02:24:54;;;;;;;4.65;3.20;;;20.00;61.00;;;;;;5033083;28;20056;-59
2021/12/15 02:27:21;;;;;;;4.30;3.50;;;20.00;61.00;;;;;;5033287;28;20045;-59
2021/12/15 02:29:50;;;;;;;5.18;3.67;;;20.00;61.00;;;;;;5032178;28;20056;-59
2021/12/15 02:32:27;;;;;;;5.68;3.60;;;20.00;61.00;;;;;;5033097;28;20494;-59
2021/12/15 02:37:15;;;;;;;4.78;3.38;;;20.00;61.10;;;;;;5033067;28;20520;-59
2021/12/15 02:37:53;;;;;;;4.82;3.45;;;20.00;61.10;;;;;;5031780;28;20486;-59
2021/12/15 02:40:19;;;;;;;4.40;3.38;;;20.00;61.10;;;;;;5032605;28;20042;-59
2021/12/15 02:42:47;;;;;;;6.78;4.00;;;20.00;61.10;;;;;;5032636;28;20053;-59
2021/12/15 02:45:15;;;;;;;5.45;3.50;;;20.00;61.00;;;;;;5032510;28;20040;-59
2021/12/15 02:47:41;;;;;;;;;;;20.00;61.00;;;;;;5032948;28;20057;-59
2021/12/15 02:50:09;;;;;;;5.35;3.60;;;20.00;61.00;;;;;;5033156;28;19944;-59
2021/12/15 02:52:35;;;;;;;4.85;3.42;;;20.00;61.00;;;;;;5032360;28;20045;-59
2021/12/15 02:55:00;;;;;;;4.03;3.28;;;20.00;61.00;;;;;;5032408;28;20469;-59
2021/12/15 02:57:26;;;;;;;4.80;3.45;;;20.00;61.00;;;;;;5031809;28;20136;-59
2021/12/15 03:03:09;;;;;;;5.22;3.47;;;20.00;61.00;;;;;;5030496;28;20064;-59
2021/12/15 03:05:32;;;;;;;4.82;3.30;;;20.00;61.00;;;;;;5030217;28;20042;-59
2021/12/15 03:15:52;;;;;;;5.10;2.97;;;20.10;61.00;;;;;;5032280;28;20057;-59
2021/12/15 03:18:20;;;;;;;4.78;3.50;;;20.10;61.00;;;;;;5031918;28;20045;-59
2021/12/15 03:20:50;;;;;;;4.20;3.05;;;20.10;61.00;;;;;;5032422;28;20077;-59
2021/12/15 03:23:45;;;;;;;3.67;2.95;;;20.10;61.00;;;;;;5032544;28;20058;-59
2021/12/15 03:26:13;;;;;;;4.80;3.30;;;20.10;61.00;;;;;;5031501;28;20179;-59
2021/12/15 03:36:53;;;;;;;5.00;3.60;;;20.10;60.80;;;;;;5031277;28;20045;-59
2021/12/15 03:39:19;;;;;;;4.85;3.38;;;20.10;60.80;;;;;;5032668;28;20049;-59
2021/12/15 03:41:44;;;;;;;5.15;3.47;;;20.10;60.80;;;;;;5031670;28;20041;-59
2021/12/15 03:44:10;;;;;;;5.82;3.78;;;20.20;60.90;;;;;;5032364;28;20052;-59
2021/12/15 03:46:36;;;;;;;5.15;3.58;;;20.20;60.90;;;;;;5031668;28;20041;-59
2021/12/15 03:49:01;;;;;;;4.78;3.28;;;20.20;60.80;;;;;;5032272;28;20184;-59
2021/12/15 03:51:27;;;;;;;4.28;3.33;;;20.20;60.90;;;;;;5035320;28;20524;-59
2021/12/15 03:53:52;;;;;;;4.85;3.00;;;20.20;60.80;;;;;;5034972;28;20504;-59
2021/12/15 03:56:18;;;;;;;4.28;3.38;;;20.20;60.80;;;;;;5036114;28;20132;-59
2021/12/15 03:58:45;;;;;;;5.05;3.17;;;20.20;60.80;;;;;;5035970;28;20047;-59
2021/12/15 04:01:14;;;;;;;5.43;3.53;;;20.20;60.70;;;;;;5035372;28;20046;-59
2021/12/15 04:03:41;;;;;;;5.88;3.45;;;20.20;60.70;;;;;;5034693;28;20045;-59
2021/12/15 04:06:09;;;;;;;5.30;3.70;;;20.20;60.70;;;;;;5035668;28;20124;-59
2021/12/15 04:08:35;;;;;;;5.20;3.53;;;20.20;60.70;;;;;;5035351;28;20123;-59
2021/12/15 04:11:01;;;;;;;5.13;4.03;;;20.30;60.70;;;;;;5035898;28;20572;-60
2021/12/15 04:13:26;;;;;;;4.95;3.63;;;20.20;60.60;;;;;;5034834;28;20042;-59
2021/12/15 04:15:57;;;;;;;4.90;3.50;;;20.20;60.60;;;;;;5034748;28;20543;-59
2021/12/15 04:18:23;;;;;;;4.55;3.30;;;20.20;60.60;;;;;;5035813;28;20053;-59
2021/12/15 04:20:49;;;;;;;5.47;3.92;;;20.20;60.60;;;;;;5034315;28;20037;-59
2021/12/15 04:23:19;;;;;;;4.25;3.28;;;20.30;60.70;;;;;;5034960;28;20067;-59
2021/12/15 04:25:45;;;;;;;5.53;3.50;;;20.30;60.60;;;;;;5035396;28;20465;-59
2021/12/15 04:28:14;;;;;;;5.78;3.15;;;20.30;60.60;;;;;;5035805;28;20049;-59
2021/12/15 04:30:44;;;;;;;5.47;4.00;;;20.30;60.60;;;;;;5034978;28;20037;-59
2021/12/15 04:33:17;;;;;;;5.20;3.20;;;20.30;60.50;;;;;;5035498;28;20508;-59
2021/12/15 04:35:42;;;;;;;6.10;3.58;;;20.30;60.60;;;;;;5034471;28;20046;-59
2021/12/15 04:38:08;;;;;;;5.45;3.50;;;20.30;60.50;;;;;;5035165;28;20044;-59
2021/12/15 04:40:33;;;;;;;4.72;3.13;;;20.40;60.60;;;;;;5035281;28;20401;-59
2021/12/15 04:43:00;;;;;;;5.35;3.83;;;20.30;60.60;;;;;;5034507;28;20037;-59
2021/12/15 04:45:25;;;;;;;4.68;3.60;;;20.30;60.50;;;;;;5035297;28;20049;-59
2021/12/15 04:47:51;;;;;;;5.45;3.25;;;20.30;60.50;;;;;;5034621;28;20049;-59
2021/12/15 04:50:21;;;;;;;4.88;3.20;;;20.30;60.50;;;;;;5034607;28;20545;-59
2021/12/15 04:52:47;;;;;;;3.85;3.10;;;20.30;60.50;;;;;;5034863;28;20117;-59
2021/12/15 04:55:13;;;;;;;5.03;3.60;;;20.30;60.50;;;;;;5035358;28;20179;-59
2021/12/15 04:57:38;;;;;;;4.85;3.30;;;20.30;60.50;;;;;;5034064;28;20092;-59
2021/12/15 05:00:06;;;;;;;6.97;3.97;;;20.30;60.50;;;;;;5033287;28;20045;-59
2021/12/15 05:02:32;;;;;;;5.07;3.30;;;20.30;60.50;;;;;;5032191;28;20469;-59
2021/12/15 05:04:58;;;;;;;4.65;3.50;;;20.40;60.50;;;;;;5032834;28;20144;-59
2021/12/15 05:07:23;;;;;;;6.70;4.10;;;20.30;60.50;;;;;;5032315;28;20057;-59
2021/12/15 05:09:50;;;;;;;6.13;3.55;;;20.40;60.50;;;;;;5034601;28;20037;-59
2021/12/15 05:12:17;;;;;;;4.88;3.35;;;20.40;60.50;;;;;;5034072;28;20050;-59
2021/12/15 05:14:43;;;;;;;4.35;3.30;;;20.40;60.50;;;;;;5034536;28;20068;-59
2021/12/15 05:17:08;;;;;;;5.43;3.42;;;20.40;60.40;;;;;;5033197;28;20147;-59
2021/12/15 05:19:34;;;;;;;5.75;3.92;;;20.40;60.50;;;;;;5032513;28;20084;-59
2021/12/15 05:22:00;;;;;;;5.82;3.95;;;20.40;60.40;;;;;;5034475;28;20385;-59
2021/12/15 05:26:55;;;;;;;6.68;3.90;;;20.40;60.50;;;;;;5033277;28;20374;-59
2021/12/15 05:29:20;;;;;;;6.15;3.90;;;20.40;60.50;;;;;;5033238;28;20481;-60
2021/12/15 05:31:46;;;;;;;5.53;4.45;;;20.40;60.40;;;;;;5034099;28;20120;-59
2021/12/15 05:34:12;;;;;;;5.57;3.53;;;20.40;60.40;;;;;;5033411;28;20100;-59
2021/12/15 05:36:37;;;;;;;5.45;3.72;;;20.40;60.50;;;;;;5034426;28;20056;-59
2021/12/15 05:39:06;;;;;;;7.32;3.97;;;20.40;60.40;;;;;;5033104;28;20079;-59
2021/12/15 05:41:32;;;;;;;;;;;20.40;60.70;;;;;;5033416;28;20417;-59
2021/12/15 05:43:58;;;;;;;5.68;3.90;;;20.40;60.40;;;;;;5033766;28;19982;-59
2021/12/15 05:46:23;;;;;;;5.75;4.05;;;20.40;60.40;;;;;;5033573;28;20510;-59
2021/12/15 05:48:49;;;;;;;6.20;4.20;;;20.40;60.40;;;;;;5033970;28;20619;-59
2021/12/15 05:51:15;;;;;;;6.45;3.55;;;20.40;60.30;;;;;;5033950;28;20047;-59
2021/12/15 05:53:40;;;;;;;5.40;3.67;;;20.40;60.30;;;;;;5033308;28;20548;-59
2021/12/15 05:56:06;;;;;;;4.95;3.80;;;20.40;60.30;;;;;;5033870;28;20049;-59
2021/12/15 05:58:32;;;;;;;5.88;3.90;;;20.40;60.30;;;;;;5033717;28;20408;-59
2021/12/15 06:00:58;;;;;;;6.18;4.10;;;20.40;60.30;;;;;;5032984;28;20124;-59
2021/12/15 06:03:23;;;;;;;6.43;4.50;;;20.40;60.30;;;;;;5033976;28;20120;-59
2021/12/15 06:05:49;;;;;;;6.40;4.07;;;20.40;60.30;;;;;;5033317;28;20128;-59
2021/12/15 06:08:14;;;;;;;6.07;4.18;;;20.40;60.30;;;;;;5032629;28;20493;-59
2021/12/15 06:10:40;;;;;;;6.63;4.10;;;20.40;60.40;;;;;;5032603;28;20045;-59
2021/12/15 06:13:07;;;;;;;6.05;3.95;;;20.40;60.40;;;;;;5032815;28;20041;-59
2021/12/15 06:15:32;;;;;;;6.25;4.45;;;20.40;60.30;;;;;;5032641;28;20037;-59
2021/12/15 06:18:04;;;;;;;5.00;3.78;;;20.40;60.30;;;;;;5033202;28;20103;-59
2021/12/15 06:20:30;;;;;;;5.82;3.78;;;20.40;60.30;;;;;;5033483;28;20049;-59
2021/12/15 06:22:58;;;;;;;5.45;4.07;;;20.40;60.30;;;;;;5032320;28;20033;-59
2021/12/15 06:25:24;;;;;;;6.50;4.22;;;20.50;60.30;;;;;;5033424;28;20568;-59
2021/12/15 06:27:49;;;;;;;7.57;5.10;;;20.40;60.30;;;;;;5031717;28;20124;-59
2021/12/15 06:30:15;;;;;;;6.55;4.53;;;20.40;60.30;;;;;;5032674;28;20092;-59
2021/12/15 06:32:41;;;;;;;5.78;4.18;;;20.40;60.20;;;;;;5032894;28;20099;-59
2021/12/15 06:35:07;;;;;;;6.10;4.43;;;20.50;60.30;;;;;;5033262;28;20091;-59
2021/12/15 06:37:32;;;;;;;6.40;4.30;;;20.50;60.20;;;;;;5030982;28;20045;-59
2021/12/15 06:39:58;;;;;;;6.32;4.53;;;20.50;60.20;;;;;;5032964;28;20044;-59
2021/12/15 06:42:24;;;;;;;6.95;4.68;;;20.50;60.20;;;;;;5032019;28;20042;-59
2021/12/15 06:44:49;;;;;;;5.72;3.97;;;20.50;60.20;;;;;;5032828;28;20077;-59
2021/12/15 06:47:36;;;;;;;6.47;4.90;;;20.50;60.30;;;;;;5032950;28;20152;-59
2021/12/15 07:00:36;;;;;;;6.80;4.75;;;20.50;60.20;;;;;;5033144;28;20069;-59
2021/12/15 07:03:02;;;;;;;6.28;4.82;;;20.60;60.20;;;;;;5032302;28;20147;-59
2021/12/15 07:05:28;;;;;;;7.15;5.00;;;20.60;60.20;;;;;;5030695;28;20124;-59
2021/12/15 07:07:54;;;;;;;6.30;4.75;;;20.60;60.20;;;;;;5031292;28;20048;-59
2021/12/15 07:10:22;;;;;;;6.40;4.57;;;20.60;60.20;;;;;;5032693;28;20428;-58
2021/12/15 07:12:48;;;;;;;6.50;4.70;;;20.60;60.20;;;;;;5031725;28;20057;-60
2021/12/15 07:15:13;;;;;;;7.13;4.57;;;20.60;60.20;;;;;;5031694;28;20081;-59
2021/12/15 07:17:40;;;;;;;6.57;5.18;;;20.60;60.20;;;;;;5031959;28;20080;-59
2021/12/15 07:20:28;;;;;;;9.32;5.32;;;20.60;60.10;;;;;;5032425;28;20477;-59
2021/12/15 07:22:52;;;;;;;8.02;5.40;;;20.60;60.10;;;;;;5032094;28;20049;-59
2021/12/15 07:25:18;;;;;;;7.93;5.20;;;20.70;60.10;;;;;;5033410;28;20049;-59
2021/12/15 07:27:43;;;;;;;8.68;5.70;;;20.60;60.00;;;;;;5036584;28;20048;-59
2021/12/15 07:30:09;;;;;;;8.13;5.65;;;20.70;60.00;;;;;;5036765;28;20123;-59
2021/12/15 07:32:35;;;;;;;10.13;6.10;;;20.60;60.00;;;;;;5035852;28;20041;-59
2021/12/15 07:35:00;;;;;;;8.30;6.18;;;20.70;60.10;;;;;;5036197;28;20037;-59
2021/12/15 07:37:26;;;;;;;8.20;5.93;;;20.70;60.10;;;;;;5036301;28;20042;-60
2021/12/15 07:39:58;;;;;;;12.10;6.10;;;20.70;60.10;;;;;;5035389;28;20045;-59
2021/12/15 07:42:54;;;;;;;8.63;5.28;;;20.70;60.10;;;;;;5036315;28;20124;-59
2021/12/15 07:45:22;;;;;;;8.45;6.15;;;20.70;60.20;;;;;;5036600;28;20033;-59
2021/12/15 07:47:49;;;;;;;8.40;5.75;;;20.70;61.00;;;;;;5035392;28;20068;-59
2021/12/15 07:50:14;;;;;;;10.27;6.20;;;20.70;60.50;;;;;;5036306;28;20072;-59
2021/12/15 07:52:40;;;;;;;7.50;5.38;;;20.70;60.60;;;;;;5035419;28;20146;-59
2021/12/15 07:55:06;;;;;;;7.85;5.85;;;20.80;60.70;;;;;;5036009;28;20503;-59
2021/12/15 07:57:31;;;;;;;8.07;6.10;;;20.80;60.80;;;;;;5034772;28;20060;-59
2021/12/15 07:59:57;;;;;;;8.02;6.40;;;20.80;60.90;;;;;;5033826;28;20811;-59
2021/12/15 08:02:23;;;;;;;7.60;6.32;;;20.80;61.00;;;;;;5036343;28;20052;-58
2021/12/15 08:04:48;;;;;;;8.50;5.70;;;20.80;61.00;;;;;;5035956;28;20051;-58
2021/12/15 08:07:15;;;;;;;8.52;6.07;;;20.80;61.00;;;;;;5035095;28;20113;-59
2021/12/15 08:09:41;;;;;;;9.48;6.57;;;20.90;61.10;;;;;;5052387;28;20060;-59
2021/12/15 08:12:07;;;;;;;9.63;6.20;;;20.90;61.20;;;;;;5055409;28;20044;-59
2021/12/15 08:14:33;;;;;;;8.82;6.32;;;20.90;61.20;;;;;;5055223;28;20083;-59
2021/12/15 08:16:58;;;;;;;10.85;6.22;;;20.90;61.30;;;;;;5055474;28;20076;-59
2021/12/15 08:19:24;;;;;;;9.02;5.85;;;20.90;61.20;;;;;;5055762;28;20049;-59
2021/12/15 08:21:50;;;;;;;8.23;6.57;;;20.90;61.20;;;;;;5054760;28;20060;-59
2021/12/15 08:24:16;;;;;;;8.65;6.03;;;20.90;61.10;;;;;;5055558;28;20087;-59
2021/12/15 08:26:41;;;;;;;8.65;5.97;;;21.00;61.10;;;;;;5053913;28;20496;-59
2021/12/15 08:29:07;;;;;;;8.57;6.05;;;20.90;61.10;;;;;;5053454;28;20128;-59
2021/12/15 08:31:33;;;;;;;9.60;6.28;;;20.90;61.00;;;;;;5054203;28;20052;-59
2021/12/15 08:33:58;;;;;;;8.63;6.68;;;20.90;61.00;;;;;;5055039;28;20056;-59
2021/12/15 08:36:24;;;;;;;8.10;5.97;;;20.90;61.00;;;;;;5053508;28;20049;-61
2021/12/15 08:38:49;;;;;;;9.55;6.60;;;20.90;61.00;;;;;;5054451;28;20050;-59
2021/12/15 08:41:20;;;;;;;10.40;6.95;;;21.00;60.90;;;;;;5055447;28;20040;-59
2021/12/15 08:43:46;;;;;;;10.30;7.05;;;21.00;60.90;;;;;;5053131;28;20485;-59
2021/12/15 08:46:17;;;;;;;9.73;6.65;;;21.00;60.80;;;;;;5053922;28;20128;-58
2021/12/15 08:48:42;;;;;;;10.07;6.68;;;21.00;60.80;;;;;;5054976;28;20053;-59
2021/12/15 08:51:09;;;;;;;7.82;6.07;;;21.00;60.80;;;;;;5054305;28;20481;-59
2021/12/15 08:53:35;;;;;;;10.65;6.80;;;21.00;60.80;;;;;;5054803;28;20048;-59
2021/12/15 08:56:01;;;;;;;9.93;6.97;;;21.00;60.80;;;;;;5053789;28;20068;-59
2021/12/15 08:58:27;;;;;;;8.85;6.15;;;21.00;60.90;;;;;;5055081;28;20049;-58
2021/12/15 09:00:53;;;;;;;9.63;6.85;;;21.00;60.80;;;;;;5054751;28;20052;-60
2021/12/15 09:03:19;;;;;;;10.00;6.40;;;21.00;60.90;;;;;;5050797;28;20150;-59
2021/12/15 09:05:45;;;;;;;9.75;6.95;;;21.00;60.80;;;;;;5042467;28;20112;-59
2021/12/15 09:08:11;;;;;;;9.75;6.93;;;21.00;60.80;;;;;;5034689;28;20103;-59
2021/12/15 09:10:39;;;;;;;10.07;7.03;;;21.00;60.80;;;;;;5033793;28;20052;-59
2021/12/15 09:13:05;;;;;;;9.02;6.85;;;21.00;60.70;;;;;;5033327;28;20116;-59
2021/12/15 09:15:30;;;;;;;9.55;6.60;;;21.00;60.70;;;;;;5034928;28;20129;-59
2021/12/15 09:17:56;;;;;;;9.98;6.57;;;21.00;60.70;;;;;;5033734;28;20045;-59
2021/12/15 09:20:25;;;;;;;9.57;6.70;;;21.00;60.70;;;;;;5033356;28;20049;-59
2021/12/15 09:22:51;;;;;;;9.95;6.60;;;21.00;60.70;;;;;;5034327;28;20041;-59
2021/12/15 09:25:16;;;;;;;8.77;6.50;;;21.00;60.70;;;;;;5033760;28;20037;-59
2021/12/15 09:27:42;;;;;;;10.82;6.78;;;21.00;60.60;;;;;;5034400;28;20056;-59
2021/12/15 09:30:09;;;;;;;9.52;6.55;;;21.00;60.60;;;;;;5034675;28;20081;-59
2021/12/15 09:32:35;;;;;;;11.07;6.43;;;21.00;60.60;;;;;;5033888;28;20076;-59
2021/12/15 09:35:01;;;;;;;8.55;6.90;;;21.00;60.60;;;;;;5034024;28;20076;-59
2021/12/15 09:37:28;;;;;;;8.45;6.70;;;21.00;60.60;;;;;;5034218;28;20073;-59
2021/12/15 09:39:54;;;;;;;9.67;6.67;;;21.00;60.60;;;;;;5033458;28;20055;-59
2021/12/15 09:42:25;;;;;;;8.90;6.55;;;21.00;60.60;;;;;;5034246;28;20049;-59
2021/12/15 09:44:54;;;;;;;8.80;6.50;;;21.00;60.60;;;;;;5034202;28;20112;-59
2021/12/15 09:47:43;;;;;;;10.50;6.93;;;21.00;60.60;;;;;;5032421;28;20099;-59
2021/12/15 10:04:11;;;;;;;9.13;6.50;;;21.10;60.50;;;;;;5033244;28;20398;-59
2021/12/15 10:06:52;;;;;;;9.70;6.95;;;21.10;60.50;;;;;;5031802;28;20591;-59
2021/12/15 10:17:26;;;;;;;9.07;6.68;;;21.10;60.40;;;;;;5033480;28;20081;-59
2021/12/15 10:17:48;;;;;;;9.88;6.68;;;21.10;60.40;;;;;;5033701;28;20046;-59
2021/12/15 10:20:20;;;;;;;10.07;7.25;;;21.10;60.40;;;;;;5033605;28;20485;-59
2021/12/15 10:22:48;;;;;;;9.48;6.50;;;21.10;60.40;;;;;;5033157;28;20034;-59
2021/12/15 10:25:24;;;;;;;10.15;6.78;;;21.10;60.30;;;;;;5033355;28;20437;-59
2021/12/15 10:27:53;;;;;;;9.52;7.22;;;21.10;60.40;;;;;;5032504;28;20049;-59
2021/12/15 10:30:25;;;;;;;9.05;6.25;;;21.10;60.40;;;;;;5033255;28;20405;-59
2021/12/15 10:32:57;;;;;;;9.27;6.95;;;21.10;60.40;;;;;;5031592;28;20064;-59
2021/12/15 10:35:28;;;;;;;9.13;6.43;;;21.10;60.30;;;;;;5032801;28;20072;-59
2021/12/15 10:38:16;;;;;;;9.20;6.78;;;21.10;60.30;;;;;;5031365;28;20128;-59
2021/12/15 10:40:44;;;;;;;;;;;21.10;60.30;;;;;;5033338;28;20053;-59
2021/12/15 10:43:10;;;;;;;9.50;6.90;;;21.10;60.90;;;;;;5032585;28;20007;-59
2021/12/15 10:45:46;;;;;;;9.93;6.70;;;21.10;60.30;;;;;;5033305;28;20128;-59
2021/12/15 10:48:23;;;;;;;9.05;6.43;;;21.10;60.40;;;;;;5033179;28;20099;-59
2021/12/15 10:50:48;;;;;;;9.80;6.90;;;21.10;60.30;;;;;;5032012;28;20049;-59
2021/12/15 10:53:14;;;;;;;9.70;6.45;;;21.10;60.30;;;;;;5033100;28;20392;-60
2021/12/15 10:55:39;;;;;;;9.85;6.60;;;21.10;60.30;;;;;;5032064;28;20052;-59
2021/12/15 10:58:31;;;;;;;9.63;6.53;;;21.10;60.30;;;;;;5032385;28;20060;-59
2021/12/15 11:00:57;;;;;;;10.05;6.50;;;21.10;60.20;;;;;;5031998;28;20489;-59
2021/12/15 11:03:23;;;;;;;9.15;6.53;;;21.10;60.20;;;;;;5032073;28;20044;-60
2021/12/15 11:05:49;;;;;;;9.13;6.78;;;21.10;60.20;;;;;;5030967;28;20481;-59
2021/12/15 11:08:19;;;;;;;9.57;6.40;;;21.10;60.10;;;;;;5031628;28;20045;-59
2021/12/15 11:10:45;;;;;;;9.60;6.95;;;21.10;60.10;;;;;;5030471;28;20047;-59
2021/12/15 11:13:12;;;;;;;7.57;6.18;;;21.10;60.10;;;;;;5032749;28;20124;-59
2021/12/15 11:15:41;;;;;;;9.32;6.60;;;21.10;60.10;;;;;;5032877;28;20042;-59
2021/12/15 11:18:12;;;;;;;11.70;7.20;;;21.10;60.00;;;;;;5031852;28;20037;-59
2021/12/15 11:20:52;;;;;;;9.63;7.15;;;21.20;60.10;;;;;;5032826;28;20050;-59
2021/12/15 11:23:19;;;;;;;9.60;7.03;;;21.20;60.00;;;;;;5032660;28;20041;-59
2021/12/15 11:26:02;;;;;;;12.93;6.93;;;21.20;59.90;;;;;;5033062;28;20473;-59
2021/12/15 11:28:30;;;;;;;10.57;7.75;;;21.20;59.90;;;;;;5033789;28;20059;-59
2021/12/15 11:31:18;;;;;;;10.88;7.35;;;21.20;59.90;;;;;;5031715;28;20059;-59
2021/12/15 11:33:54;;;;;;;11.10;7.43;;;21.20;59.90;;;;;;5032006;28;20049;-59
2021/12/15 11:36:36;;;;;;;9.20;6.70;;;21.20;59.90;;;;;;5032710;28;20128;-59
2021/12/15 11:39:08;;;;;;;9.70;6.88;;;21.20;59.90;;;;;;5031378;28;20045;-59
2021/12/15 11:41:37;;;;;;;8.40;6.95;;;21.20;59.90;;;;;;5032496;28;20053;-59
2021/12/15 11:44:04;;;;;;;10.60;7.22;;;21.20;59.90;;;;;;5032216;28;20068;-59
2021/12/15 11:46:37;;;;;;;9.55;7.13;;;21.20;60.00;;;;;;5031613;28;20045;-59
2021/12/15 11:49:07;;;;;;;10.20;6.43;;;21.20;60.00;;;;;;5034562;28;20041;-59
2021/12/15 11:51:56;;;;;;;9.40;6.28;;;21.30;60.00;;;;;;5032479;28;20083;-59
2021/12/15 11:54:36;;;;;;;10.30;6.93;;;21.30;60.20;;;;;;5031795;28;20103;-59
2021/12/15 11:57:16;;;;;;;11.80;7.15;;;21.30;60.30;;;;;;5031827;28;20144;-59
2021/12/15 11:59:44;;;;;;;9.57;6.75;;;21.30;60.40;;;;;;5031253;28;20060;-59
2021/12/15 12:02:30;;;;;;;8.82;6.53;;;21.30;60.50;;;;;;5031202;28;20042;-60
2021/12/15 12:05:10;;;;;;;8.88;6.10;;;21.30;60.50;;;;;;5032046;28;20107;-60
2021/12/15 12:07:47;;;;;;;10.15;6.40;;;21.30;60.40;;;;;;5031571;28;20050;-60
2021/12/15 12:10:20;;;;;;;9.60;6.80;;;21.30;60.30;;;;;;5032291;28;20131;-60
2021/12/15 12:12:55;;;;;;;12.45;7.85;;;21.30;60.30;;;;;;5032817;28;20045;-60
2021/12/15 12:15:23;;;;;;;11.80;5.88;;;21.30;60.30;;;;;;5035173;28;20485;-59
2021/12/15 12:17:49;;;;;;;10.13;6.30;;;21.30;60.50;;;;;;5031828;28;20041;-58
2021/12/15 12:20:19;;;;;;;9.30;6.22;;;21.30;60.60;;;;;;5034941;28;20041;-59
2021/12/15 12:22:46;;;;;;;9.52;6.55;;;21.30;60.60;;;;;;5034646;28;20424;-60
2021/12/15 12:25:14;;;;;;;10.10;6.35;;;21.30;60.70;;;;;;5034021;28;20084;-60
2021/12/15 12:27:40;;;;;;;8.27;6.07;;;21.30;60.80;;;;;;5034530;28;20045;-60
2021/12/15 12:30:10;;;;;;;9.70;6.20;;;21.40;60.90;;;;;;5033737;28;20104;-59
2021/12/15 12:32:36;;;;;;;9.45;5.70;;;21.40;61.00;;;;;;5034869;28;20488;-59
2021/12/15 12:35:04;;;;;;;10.23;6.05;;;21.40;61.00;;;;;;5032444;28;20053;-59
2021/12/15 12:37:30;;;;;;;11.10;6.50;;;21.40;61.10;;;;;;5035033;28;20079;-60
2021/12/15 12:39:58;;;;;;;8.55;5.97;;;21.40;61.10;;;;;;5033736;28;20072;-60
2021/12/15 12:42:28;;;;;;;;;;;21.40;61.10;;;;;;5033616;28;20116;-60
2021/12/15 12:44:54;;;;;;;9.30;6.03;;;21.40;61.10;;;;;;5033859;28;19972;-60
2021/12/15 12:47:31;;;;;;;9.25;6.72;;;21.40;61.10;;;;;;5033855;28;20049;-60
2021/12/15 12:50:15;;;;;;;9.50;6.07;;;21.40;61.10;;;;;;5034326;28;20042;-59
2021/12/15 13:00:52;;;;;;;11.20;6.13;;;21.40;60.90;;;;;;5032112;28;20128;-60
2021/12/15 13:03:41;;;;;;;10.43;5.68;;;21.40;60.80;;;;;;5033921;28;20073;-61
2021/12/15 13:06:10;;;;;;;8.77;5.63;;;21.40;60.70;;;;;;5034836;28;20167;-60
2021/12/15 13:08:40;;;;;;;8.98;6.05;;;21.40;60.70;;;;;;5034227;28;20398;-60
2021/12/15 13:11:19;;;;;;;8.18;5.00;;;21.40;60.70;;;;;;5033761;28;20049;-61
2021/12/15 13:14:08;;;;;;;10.07;5.88;;;21.40;60.70;;;;;;5034184;28;20057;-61
2021/12/15 13:16:50;;;;;;;8.52;5.28;;;21.30;60.70;;;;;;5033067;28;20045;-60
2021/12/15 13:19:27;;;;;;;11.95;5.55;;;21.30;60.70;;;;;;5034458;28;20049;-60
2021/12/15 13:30:58;;;;;;;8.07;5.20;;;21.30;60.70;;;;;;5033070;28;20053;-60
2021/12/15 13:33:28;;;;;;;10.27;5.10;;;21.30;60.70;;;;;;5034291;28;20041;-60
2021/12/15 13:35:56;;;;;;;8.23;5.10;;;21.30;60.70;;;;;;5033753;28;20060;-61
2021/12/15 13:38:28;;;;;;;7.67;5.03;;;21.30;60.50;;;;;;5033276;28;20041;-61
2021/12/15 13:41:09;;;;;;;7.57;5.38;;;21.30;60.50;;;;;;5032377;28;20799;-61
2021/12/15 13:43:57;;;;;;;9.88;4.70;;;21.30;60.50;;;;;;5034203;28;20069;-61
2021/12/15 13:46:22;;;;;;;;;;;21.20;60.40;;;;;;5033660;28;20125;-61
2021/12/15 13:48:59;;;;;;;7.38;4.82;;;21.20;60.50;;;;;;5033176;28;20016;-60
2021/12/15 13:52:02;;;;;;;8.75;4.82;;;21.20;60.50;;;;;;5032231;28;20096;-60
2021/12/15 13:54:33;;;;;;;7.65;4.90;;;21.20;60.50;;;;;;5033326;28;20134;-59
2021/12/15 13:57:14;;;;;;;7.32;4.88;;;21.20;60.60;;;;;;5031165;28;20512;-60
2021/12/15 14:00:14;;;;;;;9.20;4.80;;;21.20;60.80;;;;;;5031960;28;20136;-59
2021/12/15 14:02:52;;;;;;;7.75;4.53;;;21.20;60.90;;;;;;5031470;28;20048;-59
2021/12/15 14:05:17;;;;;;;7.68;4.45;;;21.20;61.00;;;;;;5032006;28;20482;-60
2021/12/15 14:07:47;;;;;;;9.85;4.70;;;21.20;61.00;;;;;;5031830;28;20088;-59
2021/12/15 14:10:13;;;;;;;8.13;4.70;;;21.20;61.10;;;;;;5031412;28;20137;-59
2021/12/15 14:12:44;;;;;;;6.90;4.70;;;21.20;61.10;;;;;;5032002;28;20108;-58
2021/12/15 14:15:29;;;;;;;7.82;4.32;;;21.20;61.00;;;;;;5043994;28;20045;-57
2021/12/15 14:17:59;;;;;;;7.38;4.28;;;21.20;61.00;;;;;;5043354;28;20052;-58